Time;durP1;ratioP1;P1;durP2;ratioP2;P2;SDS_P1;SDS_P2;PMS_P1;PMS_P2;Temp;Humidity;BMP_temperature;BMP_pressure;BME280_temperature;BME280_humidity;BME280_pressure;Samples;Min_cycle;Max_cycle;Signal;HPM_P1;HPM_P2
2022/04/03 00:01:35;;;;;;;;;;;;;;;-139.48;100.00;61774.03;5022337;28;19920;-75
2022/04/03 00:04:19;;;;;;;;;;;;;;;-139.48;100.00;61774.03;5022284;28;20003;-75
2022/04/03 00:07:03;;;;;;;;;;;;;;;-139.48;100.00;61774.03;5022265;28;19963;-76
2022/04/03 00:09:47;;;;;;;;;;;;;;;-139.48;100.00;61774.03;5036230;28;19920;-75
2022/04/03 00:12:31;;;;;;;;;;;;;;;-139.48;100.00;61774.03;5037383;28;19924;-76
2022/04/03 00:15:15;;;;;;;;;;;;;;;-139.48;100.00;61774.03;5022282;28;20339;-76
2022/04/03 00:17:59;;;;;;;;;;;;;;;-139.48;100.00;61774.03;5037346;28;20452;-75
2022/04/03 00:20:43;;;;;;;;;;;;;;;-139.48;100.00;61774.03;5036342;28;19974;-76
2022/04/03 00:23:27;;;;;;;;;;;;;;;-139.48;100.00;61774.03;5035986;28;20000;-76
2022/04/03 00:26:11;;;;;;;;;;;;;;;-139.48;100.00;61774.03;5035905;28;20338;-75
2022/04/03 00:28:55;;;;;;;;;;;;;;;-139.48;100.00;61774.03;5022148;28;20098;-75
2022/04/03 00:31:39;;;;;;;;;;;;;;;-139.48;100.00;61774.03;5036078;28;20054;-76
2022/04/03 00:34:23;;;;;;;;;;;;;;;-139.48;100.00;61774.03;5036685;28;19920;-75
2022/04/03 00:37:07;;;;;;;;;;;;;;;-139.48;100.00;61774.03;5021926;28;19943;-75
2022/04/03 00:39:50;;;;;;;;;;;;;;;-139.48;100.00;61774.03;5035961;28;20311;-76
2022/04/03 00:42:35;;;;;;;;;;;;;;;-139.48;100.00;61774.03;5036224;28;20368;-76
2022/04/03 00:45:19;;;;;;;;;;;;;;;-139.48;100.00;61774.03;5021643;28;19924;-75
2022/04/03 00:48:03;;;;;;;;;;;;;;;-139.48;100.00;61774.03;5035528;28;19920;-76
2022/04/03 00:50:47;;;;;;;;;;;;;;;-139.48;100.00;61774.03;5037011;28;19963;-76
2022/04/03 00:53:31;;;;;;;;;;;;;;;-139.48;100.00;61774.03;5036318;28;20028;-75
2022/04/03 00:56:15;;;;;;;;;;;;;;;-139.48;100.00;61774.03;5021381;28;19920;-75
2022/04/03 00:58:59;;;;;;;;;;;;;;;-139.48;100.00;61774.03;5035652;28;19928;-76
2022/04/03 01:01:43;;;;;;;;;;;;;;;-139.48;100.00;61774.03;5021570;28;19920;-75
2022/04/03 01:04:27;;;;;;;;;;;;;;;-139.48;100.00;61774.03;5021736;28;19920;-75
2022/04/03 01:07:11;;;;;;;;;;;;;;;-139.48;100.00;61774.03;5035198;28;19920;-76
2022/04/03 01:09:55;;;;;;;;;;;;;;;-139.48;100.00;61774.03;5035078;28;19967;-75
2022/04/03 01:12:40;;;;;;;;;;;;;;;-139.48;100.00;61774.03;5021069;28;20024;-75
2022/04/03 01:15:24;;;;;;;;;;;;;;;-139.48;100.00;61774.03;5034948;28;19963;-75
2022/04/03 01:18:08;;;;;;;;;;;;;;;-139.48;100.00;61774.03;5021244;28;19936;-75
2022/04/03 01:20:55;;;;;;;;;;;;;;;-139.48;100.00;61774.03;5035225;28;19962;-76
2022/04/03 01:23:39;;;;;;;;;;;;;;;-139.48;100.00;61774.03;5034930;28;19920;-75
2022/04/03 01:26:24;;;;;;;;;;;;;;;-139.48;100.00;61774.03;5021393;28;19986;-75
2022/04/03 01:29:09;;;;;;;;;;;;;;;-139.48;100.00;61774.03;5020792;28;19920;-75
2022/04/03 01:31:53;;;;;;;;;;;;;;;-139.48;100.00;61774.03;5034992;28;20324;-76
2022/04/03 01:34:37;;;;;;;;;;;;;;;-139.48;100.00;61774.03;5021125;28;20351;-76
2022/04/03 01:37:21;;;;;;;;;;;;;;;-139.48;100.00;61774.03;5020786;28;19959;-75
2022/04/03 01:40:05;;;;;;;;;;;;;;;-139.48;100.00;61774.03;5034621;28;19920;-76
2022/04/03 01:42:50;;;;;;;;;;;;;;;-139.48;100.00;61774.03;5020829;28;19936;-76
2022/04/03 01:45:34;;;;;;;;;;;;;;;-139.48;100.00;61774.03;5034813;28;20002;-75
2022/04/03 01:48:18;;;;;;;;;;;;;;;-139.48;100.00;61774.03;5034728;28;19956;-76
2022/04/03 01:51:02;;;;;;;;;;;;;;;-139.48;100.00;61774.03;5034694;28;19967;-76
2022/04/03 01:53:46;;;;;;;;;;;;;;;-139.48;100.00;61774.03;5020557;28;19963;-76
2022/04/03 01:56:30;;;;;;;;;;;;;;;-139.48;100.00;61774.03;5034340;28;20035;-75
2022/04/03 01:59:14;;;;;;;;;;;;;;;-139.48;100.00;61774.03;5034496;28;20420;-76
2022/04/03 02:01:58;;;;;;;;;;;;;;;-139.48;100.00;61774.03;5034463;28;19920;-76
2022/04/03 02:04:42;;;;;;;;;;;;;;;-139.48;100.00;61774.03;5034024;28;19928;-75
2022/04/03 02:07:28;;;;;;;;;;;;;;;-139.48;100.00;61774.03;5033823;28;19919;-76
2022/04/03 02:10:12;;;;;;;;;;;;;;;-139.48;100.00;61774.03;5034304;28;19920;-75
2022/04/03 02:12:56;;;;;;;;;;;;;;;-139.48;100.00;61774.03;5034170;28;20300;-76
2022/04/03 02:15:40;;;;;;;;;;;;;;;-139.48;100.00;61774.03;5034712;28;19924;-75
2022/04/03 02:18:24;;;;;;;;;;;;;;;-139.48;100.00;61774.03;5020174;28;20019;-76
2022/04/03 02:21:07;;;;;;;;;;;;;;;-139.48;100.00;61774.03;5034801;28;19920;-76
2022/04/03 02:23:52;;;;;;;;;;;;;;;-139.48;100.00;61774.03;5033890;28;20288;-75
2022/04/03 02:26:35;;;;;;;;;;;;;;;-139.48;100.00;61774.03;5033693;28;20349;-75
2022/04/03 02:29:19;;;;;;;;;;;;;;;-139.48;100.00;61774.03;5035177;28;20335;-75
2022/04/03 02:32:03;;;;;;;;;;;;;;;-139.48;100.00;61774.03;5034544;28;19995;-75
2022/04/03 02:34:47;;;;;;;;;;;;;;;-139.48;100.00;61774.03;5019821;28;19920;-75
2022/04/03 02:37:33;;;;;;;;;;;;;;;-139.48;100.00;61774.03;5033521;28;19966;-75
2022/04/03 02:40:17;;;;;;;;;;;;;;;-139.48;100.00;61774.03;5019615;28;19920;-75
2022/04/03 02:43:02;;;;;;;;;;;;;;;-139.48;100.00;61774.03;5034358;28;19920;-75
2022/04/03 02:45:46;;;;;;;;;;;;;;;-139.48;100.00;61774.03;5033359;28;19966;-75
2022/04/03 02:48:30;;;;;;;;;;;;;;;-139.48;100.00;61774.03;5034280;28;19982;-76
2022/04/03 02:51:13;;;;;;;;;;;;;;;-139.48;100.00;61774.03;5033348;28;19919;-75
2022/04/03 02:53:57;;;;;;;;;;;;;;;-139.48;100.00;61774.03;5019432;28;19924;-76
2022/04/03 02:56:41;;;;;;;;;;;;;;;-139.48;100.00;61774.03;5033457;28;19919;-75
2022/04/03 02:59:25;;;;;;;;;;;;;;;-139.48;100.00;61774.03;5034080;28;19920;-75
2022/04/03 03:02:10;;;;;;;;;;;;;;;-139.48;100.00;61774.03;5034360;28;19979;-75
2022/04/03 03:04:54;;;;;;;;;;;;;;;-139.48;100.00;61774.03;5033142;28;20387;-75
2022/04/03 03:07:38;;;;;;;;;;;;;;;-139.48;100.00;61774.03;5033221;28;19959;-76
2022/04/03 03:10:23;;;;;;;;;;;;;;;-139.48;100.00;61774.03;5032979;28;20280;-76
2022/04/03 03:13:08;;;;;;;;;;;;;;;-139.48;100.00;61774.03;5034094;28;20375;-76
2022/04/03 03:15:52;;;;;;;;;;;;;;;-139.48;100.00;61774.03;5034957;28;20383;-75
2022/04/03 03:18:37;;;;;;;;;;;;;;;-139.48;100.00;61774.03;5032291;28;19924;-76
2022/04/03 03:21:21;;;;;;;;;;;;;;;-139.48;100.00;61774.03;5019166;28;20048;-76
2022/04/03 03:24:05;;;;;;;;;;;;;;;-139.48;100.00;61774.03;5033689;28;19919;-75
2022/04/03 03:26:48;;;;;;;;;;;;;;;-139.48;100.00;61774.03;5033729;28;19924;-75
2022/04/03 03:29:32;;;;;;;;;;;;;;;-139.48;100.00;61774.03;5018729;28;19920;-76
2022/04/03 03:32:16;;;;;;;;;;;;;;;-139.48;100.00;61774.03;5032635;28;19924;-75
2022/04/03 03:35:01;;;;;;;;;;;;;;;-139.48;100.00;61774.03;5033710;28;20391;-75
2022/04/03 03:37:45;;;;;;;;;;;;;;;-139.48;100.00;61774.03;5032941;28;19920;-76
2022/04/03 03:40:29;;;;;;;;;;;;;;;-139.48;100.00;61774.03;5033879;28;20419;-76
2022/04/03 03:43:13;;;;;;;;;;;;;;;-139.48;100.00;61774.03;5033560;28;19975;-75
2022/04/03 03:45:57;;;;;;;;;;;;;;;-139.48;100.00;61774.03;5033468;28;19923;-75
2022/04/03 03:48:41;;;;;;;;;;;;;;;-139.48;100.00;61774.03;5033810;28;19920;-75
2022/04/03 03:51:25;;;;;;;;;;;;;;;-139.48;100.00;61774.03;5018849;28;19959;-75
2022/04/03 03:54:09;;;;;;;;;;;;;;;-139.48;100.00;61774.03;5018448;28;19923;-75
2022/04/03 03:56:53;;;;;;;;;;;;;;;-139.48;100.00;61774.03;5032748;28;20289;-76
2022/04/03 03:59:37;;;;;;;;;;;;;;;-139.48;100.00;61774.03;5032729;28;19928;-75
2022/04/03 04:02:21;;;;;;;;;;;;;;;-139.48;100.00;61774.03;5033356;28;19920;-75
2022/04/03 04:05:05;;;;;;;;;;;;;;;-139.48;100.00;61774.03;5032310;28;19926;-76
2022/04/03 04:07:49;;;;;;;;;;;;;;;-139.48;100.00;61774.03;5032645;28;19963;-76
2022/04/03 04:10:33;;;;;;;;;;;;;;;-139.48;100.00;61774.03;5032460;28;19940;-75
2022/04/03 04:13:17;;;;;;;;;;;;;;;-139.48;100.00;61774.03;5032522;28;20007;-76
2022/04/03 04:16:01;;;;;;;;;;;;;;;-139.48;100.00;61774.03;5018700;28;20265;-76
2022/04/03 04:18:44;;;;;;;;;;;;;;;-139.48;100.00;61774.03;5032482;28;20049;-75
2022/04/03 04:21:28;;;;;;;;;;;;;;;-139.48;100.00;61774.03;5032545;28;19920;-76
2022/04/03 04:24:12;;;;;;;;;;;;;;;-139.48;100.00;61774.03;5033115;28;20320;-75
2022/04/03 04:26:58;;;;;;;;;;;;;;;-139.48;100.00;61774.03;5032464;28;19920;-76
2022/04/03 04:29:41;;;;;;;;;;;;;;;-139.48;100.00;61774.03;5033927;28;20398;-75
2022/04/03 04:32:26;;;;;;;;;;;;;;;-139.48;100.00;61774.03;5021764;28;19924;-76
2022/04/03 04:35:09;;;;;;;;;;;;;;;-139.48;100.00;61774.03;5036726;28;19947;-76
2022/04/03 04:37:53;;;;;;;;;;;;;;;-139.48;100.00;61774.03;5035730;28;19966;-75
2022/04/03 04:40:37;;;;;;;;;;;;;;;-139.48;100.00;61774.03;5036007;28;19959;-75
2022/04/03 04:43:21;;;;;;;;;;;;;;;-139.48;100.00;61774.03;5035645;28;19959;-75
2022/04/03 04:46:05;;;;;;;;;;;;;;;-139.48;100.00;61774.03;5036504;28;19959;-75
2022/04/03 04:48:49;;;;;;;;;;;;;;;-139.48;100.00;61774.03;5035553;28;20308;-75
2022/04/03 04:51:33;;;;;;;;;;;;;;;-139.48;100.00;61774.03;5036071;28;19920;-75
2022/04/03 04:54:17;;;;;;;;;;;;;;;-139.48;100.00;61774.03;5035702;28;19951;-75
2022/04/03 04:57:01;;;;;;;;;;;;;;;-139.48;100.00;61774.03;5035591;28;20376;-75
2022/04/03 04:59:45;;;;;;;;;;;;;;;-139.48;100.00;61774.03;5036616;28;19959;-76
2022/04/03 05:02:29;;;;;;;;;;;;;;;-139.48;100.00;61774.03;5036555;28;19967;-75
2022/04/03 05:05:14;;;;;;;;;;;;;;;-139.48;100.00;61774.03;5035168;28;19959;-75
2022/04/03 05:07:58;;;;;;;;;;;;;;;-139.48;100.00;61774.03;5036184;28;19920;-75
2022/04/03 05:10:41;;;;;;;;;;;;;;;-139.48;100.00;61774.03;5035476;28;19919;-75
2022/04/03 05:13:25;;;;;;;;;;;;;;;-139.48;100.00;61774.03;5021446;28;19940;-76
2022/04/03 05:16:10;;;;;;;;;;;;;;;-139.48;100.00;61774.03;5035462;28;20396;-75
2022/04/03 05:18:54;;;;;;;;;;;;;;;-139.48;100.00;61774.03;5035014;28;20054;-76
2022/04/03 05:21:38;;;;;;;;;;;;;;;-139.48;100.00;61774.03;5035262;28;19983;-75
2022/04/03 05:24:22;;;;;;;;;;;;;;;-139.48;100.00;61774.03;5035278;28;19936;-75
2022/04/03 05:27:06;;;;;;;;;;;;;;;-139.48;100.00;61774.03;5035840;28;19963;-76
2022/04/03 05:29:50;;;;;;;;;;;;;;;-139.48;100.00;61774.03;5034789;28;19974;-75
2022/04/03 05:32:35;;;;;;;;;;;;;;;-139.48;100.00;61774.03;5035779;28;19967;-75
2022/04/03 05:35:19;;;;;;;;;;;;;;;-139.48;100.00;61774.03;5020597;28;19920;-75
2022/04/03 05:38:03;;;;;;;;;;;;;;;-139.48;100.00;61774.03;5020667;28;20387;-75
2022/04/03 05:40:47;;;;;;;;;;;;;;;-139.48;100.00;61774.03;5019953;28;20415;-76
2022/04/03 05:43:31;;;;;;;;;;;;;;;-139.48;100.00;61774.03;5035512;28;19967;-75
2022/04/03 05:46:15;;;;;;;;;;;;;;;-139.48;100.00;61774.03;5034744;28;19931;-75
2022/04/03 05:48:59;;;;;;;;;;;;;;;-139.48;100.00;61774.03;5035464;28;19919;-76
2022/04/03 05:51:43;;;;;;;;;;;;;;;-139.48;100.00;61774.03;5035364;28;19963;-75
2022/04/03 05:54:27;;;;;;;;;;;;;;;-139.48;100.00;61774.03;5034620;28;20047;-75
2022/04/03 05:57:11;;;;;;;;;;;;;;;-139.48;100.00;61774.03;5034867;28;20379;-76
2022/04/03 05:59:55;;;;;;;;;;;;;;;-139.48;100.00;61774.03;5035223;28;20426;-76
2022/04/03 06:02:45;;;;;;;;;;;;;;;-139.48;100.00;61774.03;5035164;28;19983;-76
2022/04/03 06:05:31;;;;;;;;;;;;;;;-139.48;100.00;61774.03;5035346;28;19920;-75
2022/04/03 06:08:14;;;;;;;;;;;;;;;-139.48;100.00;61774.03;5034563;28;19959;-76
2022/04/03 06:10:58;;;;;;;;;;;;;;;-139.48;100.00;61774.03;5034006;28;20281;-76
2022/04/03 06:13:42;;;;;;;;;;;;;;;-139.48;100.00;61774.03;5020178;28;20327;-76
2022/04/03 06:16:26;;;;;;;;;;;;;;;-139.48;100.00;61774.03;5020171;28;19923;-75
2022/04/03 06:19:12;;;;;;;;;;;;;;;-139.48;100.00;61774.03;5034857;28;19924;-75
2022/04/03 06:21:56;;;;;;;;;;;;;;;-139.48;100.00;61774.03;5033826;28;19971;-76
2022/04/03 06:24:40;;;;;;;;;;;;;;;-139.48;100.00;61774.03;5034934;28;20336;-75
2022/04/03 06:27:26;;;;;;;;;;;;;;;-139.48;100.00;61774.03;5033973;28;19967;-75
2022/04/03 06:30:10;;;;;;;;;;;;;;;-139.48;100.00;61774.03;5034626;28;19924;-76
2022/04/03 06:32:54;;;;;;;;;;;;;;;-139.48;100.00;61774.03;5033528;28;19924;-76
2022/04/03 06:35:38;;;;;;;;;;;;;;;-139.48;100.00;61774.03;5033468;28;20285;-75
2022/04/03 06:38:22;;;;;;;;;;;;;;;-139.48;100.00;61774.03;5033823;28;20288;-76
2022/04/03 06:41:08;;;;;;;;;;;;;;;-139.48;100.00;61774.03;5019501;28;20299;-76
2022/04/03 06:43:52;;;;;;;;;;;;;;;-139.48;100.00;61774.03;5033477;28;19967;-76
2022/04/03 06:46:36;;;;;;;;;;;;;;;-139.48;100.00;61774.03;5033366;28;19959;-75
2022/04/03 06:49:20;;;;;;;;;;;;;;;-139.48;100.00;61774.03;5033326;28;19924;-75
2022/04/03 06:52:04;;;;;;;;;;;;;;;-139.48;100.00;61774.03;5033375;28;20467;-75
2022/04/03 06:54:48;;;;;;;;;;;;;;;-139.48;100.00;61774.03;5033405;28;19976;-75
2022/04/03 06:57:32;;;;;;;;;;;;;;;-139.48;100.00;61774.03;5033460;28;19920;-75
2022/04/03 07:00:16;;;;;;;;;;;;;;;-139.48;100.00;61774.03;5033400;28;19959;-75
2022/04/03 07:03:00;;;;;;;;;;;;;;;-139.48;100.00;61774.03;5033399;28;19923;-75
2022/04/03 07:05:44;;;;;;;;;;;;;;;-139.48;100.00;61774.03;5033296;28;19967;-75
2022/04/03 07:08:28;;;;;;;;;;;;;;;-139.48;100.00;61774.03;5019579;28;20061;-75
2022/04/03 07:11:12;;;;;;;;;;;;;;;-139.48;100.00;61774.03;5033291;28;19919;-75
2022/04/03 07:13:56;;;;;;;;;;;;;;;-139.48;100.00;61774.03;5018990;28;19924;-75
2022/04/03 07:16:40;;;;;;;;;;;;;;;-139.48;100.00;61774.03;5033844;28;19924;-75
2022/04/03 07:19:24;;;;;;;;;;;;;;;-139.48;100.00;61774.03;5019206;28;19928;-75
2022/04/03 07:22:08;;;;;;;;;;;;;;;-139.48;100.00;61774.03;5034114;28;19928;-75
2022/04/03 07:24:52;;;;;;;;;;;;;;;-139.48;100.00;61774.03;5034163;28;20396;-75
2022/04/03 07:27:37;;;;;;;;;;;;;;;-139.48;100.00;61774.03;5033825;28;19920;-75
2022/04/03 07:30:21;;;;;;;;;;;;;;;-139.48;100.00;61774.03;5033007;28;19920;-75
2022/04/03 07:33:05;;;;;;;;;;;;;;;-139.48;100.00;61774.03;5032605;28;19924;-75
2022/04/03 07:35:48;;;;;;;;;;;;;;;-139.48;100.00;61774.03;5032869;28;19919;-75
2022/04/03 07:38:33;;;;;;;;;;;;;;;-139.48;100.00;61774.03;5032605;28;19920;-75
2022/04/03 07:41:17;;;;;;;;;;;;;;;-139.48;100.00;61774.03;5033577;28;19920;-75
2022/04/03 07:44:01;;;;;;;;;;;;;;;-139.48;100.00;61774.03;5032585;28;19920;-74
2022/04/03 07:46:45;;;;;;;;;;;;;;;-139.48;100.00;61774.03;5018911;28;19920;-75
2022/04/03 07:49:29;;;;;;;;;;;;;;;-139.48;100.00;61774.03;5032566;28;19920;-75
2022/04/03 07:52:13;;;;;;;;;;;;;;;-139.48;100.00;61774.03;5018488;28;19971;-75
2022/04/03 07:54:56;;;;;;;;;;;;;;;-139.48;100.00;61774.03;5032401;28;19966;-75
2022/04/03 07:57:41;;;;;;;;;;;;;;;-139.48;100.00;61774.03;5033454;28;19920;-75
2022/04/03 08:00:24;;;;;;;;;;;;;;;-139.48;100.00;61774.03;5032619;28;19935;-75
2022/04/03 08:03:09;;;;;;;;;;;;;;;-139.48;100.00;61774.03;5018749;28;19958;-75
2022/04/03 08:05:53;;;;;;;;;;;;;;;-139.48;100.00;61774.03;5037119;28;19920;-75
2022/04/03 08:08:37;;;;;;;;;;;;;;;-139.48;100.00;61774.03;5036366;28;19963;-75
2022/04/03 08:11:21;;;;;;;;;;;;;;;-139.48;100.00;61774.03;5036260;28;19920;-75
2022/04/03 08:14:05;;;;;;;;;;;;;;;-139.48;100.00;61774.03;5036272;28;20010;-75
2022/04/03 08:16:49;;;;;;;;;;;;;;;-139.48;100.00;61774.03;5037158;28;20395;-75
2022/04/03 08:19:33;;;;;;;;;;;;;;;-139.48;100.00;61774.03;5036280;28;19943;-75
2022/04/03 08:22:17;;;;;;;;;;;;;;;-139.48;100.00;61774.03;5036090;28;19920;-75
2022/04/03 08:25:01;;;;;;;;;;;;;;;-139.48;100.00;61774.03;5036939;28;19919;-75
2022/04/03 08:27:46;;;;;;;;;;;;;;;-139.48;100.00;61774.03;5021932;28;19963;-75
2022/04/03 08:30:32;;;;;;;;;;;;;;;-139.48;100.00;61774.03;5036203;28;19947;-75
2022/04/03 08:33:16;;;;;;;;;;;;;;;-139.48;100.00;61774.03;5036071;28;19924;-75
2022/04/03 08:36:00;;;;;;;;;;;;;;;-139.48;100.00;61774.03;5035795;28;20383;-75
2022/04/03 08:38:44;;;;;;;;;;;;;;;-139.48;100.00;61774.03;5021710;28;19935;-75
2022/04/03 08:41:28;;;;;;;;;;;;;;;-139.48;100.00;61774.03;5035994;28;20440;-74
2022/04/03 08:44:12;;;;;;;;;;;;;;;-139.48;100.00;61774.03;5037139;28;19979;-75
2022/04/03 08:46:55;;;;;;;;;;;;;;;-139.48;100.00;61774.03;5036912;28;19959;-75
2022/04/03 08:49:39;;;;;;;;;;;;;;;-139.48;100.00;61774.03;5036580;28;20291;-75
2022/04/03 08:52:23;;;;;;;;;;;;;;;-139.48;100.00;61774.03;5035998;28;20280;-75
2022/04/03 08:55:07;;;;;;;;;;;;;;;-139.48;100.00;61774.03;5035578;28;19962;-75
2022/04/03 08:57:51;;;;;;;;;;;;;;;-139.48;100.00;61774.03;5035586;28;19919;-75
2022/04/03 09:00:35;;;;;;;;;;;;;;;-139.48;100.00;61774.03;5035254;28;19959;-75
2022/04/03 09:03:19;;;;;;;;;;;;;;;-139.48;100.00;61774.03;5036536;28;20339;-75
2022/04/03 09:06:13;;;;;;;;;;;;;;;-139.48;100.00;61774.03;5035229;28;20323;-75
2022/04/03 09:08:57;;;;;;;;;;;;;;;-139.48;100.00;61774.03;5021294;28;19920;-75
2022/04/03 09:11:40;;;;;;;;;;;;;;;-139.48;100.00;61774.03;5035183;28;20395;-75
2022/04/03 09:14:24;;;;;;;;;;;;;;;-139.48;100.00;61774.03;5035349;28;19923;-75
2022/04/03 09:17:08;;;;;;;;;;;;;;;-139.48;100.00;61774.03;5035420;28;19924;-75
2022/04/03 09:19:54;;;;;;;;;;;;;;;-139.48;100.00;61774.03;5021329;28;19951;-75
2022/04/03 09:22:38;;;;;;;;;;;;;;;-139.48;100.00;61774.03;5035260;28;20284;-76
2022/04/03 09:25:28;;;;;;;;;;;;;;;-139.48;100.00;61774.03;5021400;28;20292;-75
2022/04/03 09:28:14;;;;;;;;;;;;;;;-139.48;100.00;61774.03;5021190;28;19955;-75
2022/04/03 09:30:57;;;;;;;;;;;;;;;-139.48;100.00;61774.03;5036030;28;19920;-75
2022/04/03 09:33:41;;;;;;;;;;;;;;;-139.48;100.00;61774.03;5034909;28;20001;-75
2022/04/03 09:36:27;;;;;;;;;;;;;;;-139.48;100.00;61774.03;5034951;28;19943;-75
2022/04/03 09:39:18;;;;;;;;;;;;;;;-139.48;100.00;61774.03;5035923;28;19976;-75
2022/04/03 09:42:03;;;;;;;;;;;;;;;-139.48;100.00;61774.03;5035838;28;19920;-75
2022/04/03 09:44:49;;;;;;;;;;;;;;;-139.48;100.00;61774.03;5020749;28;20391;-75
2022/04/03 09:47:34;;;;;;;;;;;;;;;-139.48;100.00;61774.03;5021158;28;19928;-75
2022/04/03 09:50:18;;;;;;;;;;;;;;;-139.48;100.00;61774.03;5034784;28;19963;-75
2022/04/03 09:53:02;;;;;;;;;;;;;;;-139.48;100.00;61774.03;5034430;28;19967;-75
2022/04/03 09:55:46;;;;;;;;;;;;;;;-139.48;100.00;61774.03;5034298;28;19967;-75
2022/04/03 09:58:30;;;;;;;;;;;;;;;-139.48;100.00;61774.03;5034597;28;19920;-75
2022/04/03 10:01:26;;;;;;;;;;;;;;;-139.48;100.00;61774.03;5034252;28;19920;-75
2022/04/03 10:04:14;;;;;;;;;;;;;;;-139.48;100.00;61774.03;5035356;28;19951;-75
2022/04/03 10:06:58;;;;;;;;;;;;;;;-139.48;100.00;61774.03;5020432;28;19920;-75
2022/04/03 10:09:50;;;;;;;;;;;;;;;-139.48;100.00;61774.03;5034357;28;19920;-75
2022/04/03 10:12:34;;;;;;;;;;;;;;;-139.48;100.00;61774.03;5035206;28;19971;-75
2022/04/03 10:15:18;;;;;;;;;;;;;;;-139.48;100.00;61774.03;5033935;28;19919;-75
2022/04/03 10:18:02;;;;;;;;;;;;;;;-139.48;100.00;61774.03;5033917;28;19963;-75
2022/04/03 10:20:45;;;;;;;;;;;;;;;-139.48;100.00;61774.03;5034148;28;19920;-76
2022/04/03 10:23:29;;;;;;;;;;;;;;;-139.48;100.00;61774.03;5034121;28;19919;-76
2022/04/03 10:26:18;;;;;;;;;;;;;;;-139.48;100.00;61774.03;5033642;28;20006;-75
2022/04/03 10:29:02;;;;;;;;;;;;;;;-139.48;100.00;61774.03;5033705;28;19920;-75
2022/04/03 10:31:58;;;;;;;;;;;;;;;-139.48;100.00;98006.69;5020040;28;20383;-75
2022/04/03 10:34:46;;;;;;;;;;;;;;;6.18;61.92;101022.31;5033527;28;19967;-75
2022/04/03 10:37:29;;;;;;;;;;;;;;;6.33;64.76;101022.19;5034517;28;19919;-75
2022/04/03 10:40:17;;;;;;;;;;;;;;;6.27;60.82;101025.22;5019466;28;19920;-75
2022/04/03 10:43:06;;;;;;;;;;;;;;;6.24;62.82;101020.13;5019438;28;20292;-75
2022/04/03 10:45:50;;;;;;;;;;;;;;;6.18;61.54;101028.44;5019456;28;20331;-75
2022/04/03 10:48:34;;;;;;;;;;;;;;;6.42;61.01;101021.59;5033372;28;19944;-75
2022/04/03 10:51:24;;;;;;;;;;;;;;;6.56;55.42;101023.34;5033388;28;19967;-75
2022/04/03 10:54:07;;;;;;;;;;;;;;;6.79;56.79;101004.94;5033190;28;19924;-75
2022/04/03 10:56:51;;;;;;;;;;;;;;;6.93;56.28;101015.47;5034201;28;19920;-75
2022/04/03 10:59:36;;;;;;;;;;;;;;;6.91;56.82;101014.75;5019254;28;20289;-75
2022/04/03 11:02:20;;;;;;;;;;;;;;;7.10;57.64;101015.16;5019201;28;19964;-75
2022/04/03 11:05:22;;;;;;;;;;;;;;;6.89;56.19;101011.31;5019019;28;19964;-75
2022/04/03 11:08:06;;;;;;;;;;;;;;;6.53;56.08;101021.72;5034102;28;19924;-75
2022/04/03 11:11:07;;;;;;;;;;;;;;;6.64;59.32;101027.16;5019292;28;19924;-75
2022/04/03 11:13:50;;;;;;;;;;;;;;;6.75;60.24;101014.06;5033052;28;19975;-75
2022/04/03 11:16:54;;;;;;;;;;;;;;;6.63;59.04;101014.88;5032942;28;19963;-75
2022/04/03 11:19:43;;;;;;;;;;;;;;;6.53;59.79;101019.09;5034251;28;19919;-75
2022/04/03 11:22:27;;;;;;;;;;;;;;;6.31;58.94;101020.56;5033426;28;19920;-75
2022/04/03 11:25:11;;;;;;;;;;;;;;;6.16;58.47;101022.41;5032716;28;19924;-75
2022/04/03 11:27:54;;;;;;;;;;;;;;;6.01;59.73;101020.75;5033056;28;19963;-75
2022/04/03 11:30:38;;;;;;;;;;;;;;;6.07;60.06;101009.75;5019073;28;19920;-75
2022/04/03 11:33:22;;;;;;;;;;;;;;;6.05;61.11;101018.75;5018950;28;20289;-75
2022/04/03 11:36:07;;;;;;;;;;;;;;;6.03;60.43;101021.50;5033590;28;19980;-75
2022/04/03 11:38:51;;;;;;;;;;;;;;;6.17;59.67;101010.88;5032389;28;19984;-75
2022/04/03 11:41:35;;;;;;;;;;;;;;;6.14;59.26;101005.78;5018913;28;19920;-75
2022/04/03 11:44:19;;;;;;;;;;;;;;;6.18;63.03;101012.56;5018623;28;20620;-75
2022/04/03 11:47:04;;;;;;;;;;;;;;;6.26;57.04;101009.44;5033593;28;19919;-75
2022/04/03 11:50:02;;;;;;;;;;;;;;;5.97;58.23;101018.41;5018886;28;20368;-75
2022/04/03 11:52:46;;;;;;;;;;;;;;;5.77;59.45;101016.13;5018894;28;19967;-75
2022/04/03 11:55:34;;;;;;;;;;;;;;;6.11;59.13;101016.56;5032472;28;20315;-75
2022/04/03 11:58:18;;;;;;;;;;;;;;;6.22;57.59;100998.19;5033494;28;20379;-75
2022/04/03 12:01:02;;;;;;;;;;;;;;;6.55;58.87;101003.94;5033029;28;19936;-75
2022/04/03 12:03:46;;;;;;;;;;;;;;;6.76;61.76;100999.03;5033583;28;19935;-76
2022/04/03 12:06:30;;;;;;;;;;;;;;;7.25;58.36;101002.66;5019039;28;19920;-75
2022/04/03 12:09:14;;;;;;;;;;;;;;;7.62;55.36;101002.69;5032694;28;20391;-76
2022/04/03 12:12:04;;;;;;;;;;;;;;;7.62;55.36;101002.69;5032583;28;19963;-74
2022/04/03 12:14:47;;;;;;;;;;;;;;;-139.48;100.00;61774.03;5032344;28;20018;-75
2022/04/03 12:17:38;;;;;;;;;;;;;;;-139.48;100.00;61774.03;5018698;28;19923;-75
2022/04/03 12:20:22;;;;;;;;;;;;;;;-139.48;100.00;61774.03;5032332;28;19920;-74
2022/04/03 12:23:07;;;;;;;;;;;;;;;-139.48;100.00;61774.03;5032530;28;19959;-75
2022/04/03 12:25:51;;;;;;;;;;;;;;;-139.48;100.00;61774.03;5033169;28;19936;-75
2022/04/03 12:28:35;;;;;;;;;;;;;;;-139.48;100.00;61774.03;5033507;28;19919;-74
2022/04/03 12:31:24;;;;;;;;;;;;;;;-139.48;100.00;61774.03;5032451;28;19963;-73
2022/04/03 12:34:18;;;;;;;;;;;;;;;-139.48;100.00;61774.03;5018334;28;20031;-73
2022/04/03 12:37:02;;;;;;;;;;;;;;;-139.48;100.00;61774.03;5032479;28;19920;-75
2022/04/03 12:40:07;;;;;;;;;;;;;;;-139.48;100.00;61774.03;5032194;28;20068;-74
2022/04/03 12:42:59;;;;;;;;;;;;;;;-139.48;100.00;61774.03;5033074;28;19939;-75
2022/04/03 12:45:43;;;;;;;;;;;;;;;-139.48;100.00;61774.03;5032294;28;19935;-74
2022/04/03 12:48:27;;;;;;;;;;;;;;;-139.48;100.00;61774.03;5032018;28;19928;-73
2022/04/03 12:51:11;;;;;;;;;;;;;;;-139.48;100.00;61774.03;5034785;28;19919;-74
2022/04/03 12:53:58;;;;;;;;;;;;;;;-139.48;100.00;61774.03;5035702;28;19932;-73
2022/04/03 12:59:50;;;;;;;;;;;;;;;-139.48;100.00;61774.03;5035857;28;19975;-74
2022/04/03 13:02:38;;;;;;;;;;;;;;;-139.48;100.00;61774.03;5021975;28;20299;-74
2022/04/03 13:05:22;;;;;;;;;;;;;;;-139.48;100.00;61774.03;5035290;28;19920;-73
2022/04/03 13:08:10;;;;;;;;;;;;;;;-139.48;100.00;61774.03;5036261;28;20422;-75
2022/04/03 13:10:54;;;;;;;;;;;;;;;-139.48;100.00;61774.03;5035227;28;20023;-74
2022/04/03 13:13:38;;;;;;;;;;;;;;;-139.48;100.00;61774.03;5035166;28;20431;-74
2022/04/03 13:16:22;;;;;;;;;;;;;;;-139.48;100.00;61774.03;5034965;28;20372;-75
2022/04/03 13:19:06;;;;;;;;;;;;;;;-139.48;100.00;61774.03;5036348;28;19920;-75
2022/04/03 13:21:57;;;;;;;;;;;;;;;-139.48;100.00;61774.03;5035007;28;19947;-75
2022/04/03 13:24:41;;;;;;;;;;;;;;;-139.48;100.00;61774.03;5021091;28;20031;-75
2022/04/03 13:27:24;;;;;;;;;;;;;;;-139.48;100.00;61774.03;5020867;28;19928;-74
2022/04/03 13:30:09;;;;;;;;;;;;;;;-139.48;100.00;61774.03;5035830;28;19920;-74
2022/04/03 13:32:52;;;;;;;;;;;;;;;-139.48;100.00;61774.03;5034638;28;19967;-75
2022/04/03 13:35:38;;;;;;;;;;;;;;;-139.48;100.00;61774.03;5035698;28;19919;-73
2022/04/03 13:38:22;;;;;;;;;;;;;;;-139.48;100.00;61774.03;5020965;28;20379;-73
2022/04/03 13:41:06;;;;;;;;;;;;;;;-139.48;100.00;61774.03;5035887;28;19920;-74
2022/04/03 13:43:50;;;;;;;;;;;;;;;-139.48;100.00;61774.03;5034702;28;20443;-73
2022/04/03 13:46:34;;;;;;;;;;;;;;;-139.48;100.00;61774.03;5034776;28;19919;-75
2022/04/03 13:49:18;;;;;;;;;;;;;;;-139.48;100.00;61774.03;5034758;28;19959;-74
2022/04/03 13:52:02;;;;;;;;;;;;;;;-139.48;100.00;61774.03;5035746;28;20015;-75